Time;durP1;ratioP1;P1;durP2;ratioP2;P2;SDS_P1;SDS_P2;PMS_P1;PMS_P2;Temp;Humidity;BMP_temperature;BMP_pressure;BME280_temperature;BME280_humidity;BME280_pressure;Samples;Min_cycle;Max_cycle;Signal;HPM_P1;HPM_P2
2023/06/04 00:00:11;;;;;;;0.10;0.10;;;11.80;96.10;;;;;;4823452;29;20054;-83
2023/06/04 00:02:36;;;;;;;0.20;0.20;;;11.50;96.10;;;;;;4834930;29;20038;-83
2023/06/04 00:05:02;;;;;;;0.20;0.20;;;11.50;96.20;;;;;;4823637;29;20057;-84
2023/06/04 00:07:28;;;;;;;0.17;0.17;;;11.50;96.40;;;;;;4828194;29;20054;-82
2023/06/04 00:09:53;;;;;;;0.20;0.20;;;12.20;96.70;;;;;;4824598;29;20102;-84
2023/06/04 00:12:20;;;;;;;0.20;0.20;;;11.50;96.60;;;;;;4838971;29;20057;-83
2023/06/04 00:14:45;;;;;;;0.20;0.20;;;11.50;96.80;;;;;;4824512;29;20474;-83
2023/06/04 00:17:11;;;;;;;0.10;0.10;;;11.80;97.00;;;;;;4825486;29;20102;-83
2023/06/04 00:19:40;;;;;;;0.10;0.10;;;11.50;97.00;;;;;;4822015;29;20376;-82
2023/06/04 00:22:07;;;;;;;0.10;0.10;;;11.50;97.10;;;;;;4841753;29;20087;-83
2023/06/04 00:24:33;;;;;;;0.20;0.20;;;11.50;97.30;;;;;;4824305;29;20144;-82
2023/06/04 00:26:59;;;;;;;0.20;0.20;;;11.40;97.40;;;;;;4838815;29;20483;-82
2023/06/04 00:29:25;;;;;;;0.20;0.20;;;11.40;97.50;;;;;;4822816;29;20054;-86
2023/06/04 00:31:50;;;;;;;0.10;0.10;;;11.50;97.70;;;;;;4839069;29;20056;-82
2023/06/04 00:34:18;;;;;;;0.10;0.10;;;11.50;97.80;;;;;;4830164;29;20046;-83
2023/06/04 00:36:43;;;;;;;0.20;0.20;;;11.40;98.00;;;;;;4823986;29;20593;-83
2023/06/04 00:39:09;;;;;;;0.20;0.20;;;11.30;98.10;;;;;;4823897;29;20052;-82
2023/06/04 00:41:35;;;;;;;0.20;0.20;;;11.30;98.20;;;;;;4822963;29;20070;-82
2023/06/04 00:44:01;;;;;;;0.20;0.20;;;11.30;98.60;;;;;;4841173;29;20050;-82
2023/06/04 00:46:28;;;;;;;0.10;0.10;;;11.30;98.50;;;;;;4837765;29;20075;-81
2023/06/04 00:48:54;;;;;;;0.10;0.10;;;11.30;98.50;;;;;;4838809;29;20048;-82
2023/06/04 00:51:21;;;;;;;0.10;0.10;;;11.30;98.50;;;;;;4839033;29;20081;-82
2023/06/04 00:53:50;;;;;;;0.15;0.15;;;11.30;98.60;;;;;;4840548;29;20088;-82
2023/06/04 00:56:16;;;;;;;0.10;0.10;;;11.20;98.60;;;;;;4839123;29;20045;-82
2023/06/04 00:58:46;;;;;;;0.10;0.10;;;11.20;98.70;;;;;;4823526;29;20383;-82
2023/06/04 01:01:37;;;;;;;0.20;0.20;;;11.20;98.80;;;;;;4838874;29;20058;-82
2023/06/04 01:04:09;;;;;;;0.10;0.10;;;11.10;98.90;;;;;;4818904;29;20141;-83
2023/06/04 01:06:43;;;;;;;0.10;0.10;;;11.10;99.00;;;;;;4839771;29;20046;-83
2023/06/04 01:09:10;;;;;;;0.10;0.10;;;11.10;99.10;;;;;;4823721;29;20038;-82
2023/06/04 01:11:38;;;;;;;0.10;0.10;;;11.00;99.20;;;;;;4823415;29;20246;-82
2023/06/04 01:14:08;;;;;;;0.20;0.20;;;11.00;99.30;;;;;;4840329;29;20038;-82
2023/06/04 01:16:45;;;;;;;0.20;0.20;;;11.00;99.40;;;;;;4839060;29;20046;-83
2023/06/04 01:19:31;;;;;;;0.10;0.10;;;11.00;99.60;;;;;;4819477;29;20049;-82
2023/06/04 01:22:03;;;;;;;0.20;0.20;;;11.00;99.60;;;;;;4821125;29;20065;-83
2023/06/04 01:24:33;;;;;;;0.20;0.20;;;11.00;99.70;;;;;;4821604;29;20056;-83
2023/06/04 01:27:00;;;;;;;0.10;0.10;;;10.90;99.70;;;;;;4821683;29;20054;-82
2023/06/04 01:29:29;;;;;;;0.20;0.20;;;10.90;99.70;;;;;;4839198;29;20083;-82
2023/06/04 01:31:56;;;;;;;0.10;0.10;;;10.90;99.80;;;;;;4828745;29;20137;-82
2023/06/04 01:34:22;;;;;;;0.20;0.20;;;10.90;99.90;;;;;;4836218;29;20042;-82
2023/06/04 01:36:47;;;;;;;0.20;0.20;;;10.90;99.90;;;;;;4822274;29;20050;-82
2023/06/04 01:39:13;;;;;;;0.10;0.10;;;10.90;99.90;;;;;;4840116;29;20052;-82
2023/06/04 01:41:39;;;;;;;0.20;0.20;;;10.80;99.90;;;;;;4837937;29;20124;-82
2023/06/04 01:44:04;;;;;;;0.20;0.20;;;10.80;99.90;;;;;;4822712;29;20054;-82
2023/06/04 01:46:30;;;;;;;0.10;0.10;;;10.80;99.90;;;;;;4839324;29;20129;-82
2023/06/04 01:48:56;;;;;;;0.10;0.10;;;10.70;99.90;;;;;;4837405;29;20042;-82
2023/06/04 01:51:23;;;;;;;0.17;0.17;;;10.80;99.90;;;;;;4832589;29;20414;-82
2023/06/04 01:53:49;;;;;;;0.20;0.20;;;10.70;99.90;;;;;;4836401;29;20050;-82
2023/06/04 01:56:15;;;;;;;0.17;0.17;;;10.70;99.90;;;;;;4826185;29;20050;-83
2023/06/04 01:58:41;;;;;;;0.20;0.20;;;10.70;99.90;;;;;;4821796;29;20504;-82
2023/06/04 02:01:09;;;;;;;0.20;0.20;;;10.70;99.90;;;;;;4838225;29;20050;-83
2023/06/04 02:03:38;;;;;;;0.20;0.20;;;10.60;99.90;;;;;;4816987;29;20062;-82
2023/06/04 02:06:07;;;;;;;0.17;0.17;;;10.60;99.90;;;;;;4822636;29;20060;-82
2023/06/04 02:08:33;;;;;;;0.20;0.20;;;10.60;99.90;;;;;;4839197;29;20429;-82
2023/06/04 02:10:59;;;;;;;0.20;0.20;;;10.60;99.90;;;;;;4836854;29;20074;-83
2023/06/04 02:13:25;;;;;;;0.10;0.10;;;10.60;99.90;;;;;;4823083;29;20086;-82
2023/06/04 02:15:51;;;;;;;0.20;0.20;;;10.60;99.90;;;;;;4821425;29;20140;-82
2023/06/04 02:18:20;;;;;;;0.20;0.20;;;10.50;99.90;;;;;;4819749;29;20136;-82
2023/06/04 02:20:47;;;;;;;0.17;0.17;;;10.50;99.90;;;;;;4820150;29;20042;-82
2023/06/04 02:23:14;;;;;;;0.20;0.20;;;10.50;99.90;;;;;;4836441;29;20106;-82
2023/06/04 02:25:41;;;;;;;0.10;0.10;;;10.50;99.90;;;;;;4836435;29;20033;-83
2023/06/04 02:28:08;;;;;;;0.10;0.10;;;10.40;99.90;;;;;;4820283;29;20054;-82
2023/06/04 02:30:33;;;;;;;0.10;0.10;;;10.40;99.90;;;;;;4838402;29;20049;-83
2023/06/04 02:33:00;;;;;;;0.20;0.20;;;10.40;99.90;;;;;;4820218;29;20129;-83
2023/06/04 02:35:27;;;;;;;0.20;0.20;;;10.30;99.90;;;;;;4833468;29;20054;-83
2023/06/04 02:37:53;;;;;;;0.15;0.15;;;10.30;99.90;;;;;;4836983;29;20106;-82
2023/06/04 02:40:19;;;;;;;0.20;0.20;;;10.40;99.90;;;;;;4836115;29;20042;-83
2023/06/04 02:42:45;;;;;;;0.10;0.10;;;10.30;99.90;;;;;;4836561;29;20045;-82
2023/06/04 02:45:11;;;;;;;0.10;0.10;;;10.20;99.90;;;;;;4836801;29;20042;-82
2023/06/04 02:47:37;;;;;;;0.15;0.15;;;10.30;99.90;;;;;;4836940;29;20046;-82
2023/06/04 02:50:03;;;;;;;0.20;0.20;;;10.20;99.90;;;;;;4834790;29;20185;-82
2023/06/04 02:52:30;;;;;;;0.10;0.10;;;10.20;99.90;;;;;;4826776;29;20050;-83
2023/06/04 02:54:57;;;;;;;0.20;0.20;;;10.20;99.90;;;;;;4836296;29;20099;-82
2023/06/04 02:57:22;;;;;;;0.20;0.20;;;10.20;99.90;;;;;;4838290;29;20054;-82
2023/06/04 02:59:48;;;;;;;0.10;0.10;;;10.20;99.90;;;;;;4820263;29;20529;-82
2023/06/04 03:02:14;;;;;;;0.10;0.10;;;10.20;99.90;;;;;;4818934;29;20061;-83
2023/06/04 03:04:42;;;;;;;0.20;0.20;;;10.20;99.90;;;;;;4815826;29;20077;-83
2023/06/04 03:07:11;;;;;;;0.10;0.10;;;10.70;99.90;;;;;;4820241;29;20073;-82
2023/06/04 03:09:37;;;;;;;0.20;0.20;;;10.10;99.90;;;;;;4819666;29;20053;-82
2023/06/04 03:12:03;;;;;;;0.20;0.20;;;10.10;99.90;;;;;;4822102;29;20562;-82
2023/06/04 03:14:32;;;;;;;0.20;0.20;;;10.10;99.90;;;;;;4819699;29;20046;-82
2023/06/04 03:17:07;;;;;;;0.10;0.10;;;10.10;99.90;;;;;;4837875;29;20106;-81
2023/06/04 03:19:35;;;;;;;0.20;0.20;;;10.10;99.90;;;;;;4833514;29;20057;-82
2023/06/04 03:22:05;;;;;;;0.10;0.10;;;10.10;99.90;;;;;;4822504;29;20054;-82
2023/06/04 03:24:35;;;;;;;0.20;0.20;;;9.10;99.90;;;;;;4823912;29;20065;-83
2023/06/04 03:27:02;;;;;;;0.10;0.10;;;10.10;99.90;;;;;;4823407;29;20168;-82
2023/06/04 03:29:28;;;;;;;0.20;0.20;;;10.10;99.90;;;;;;4840721;29;20094;-83
2023/06/04 03:31:54;;;;;;;0.17;0.17;;;10.00;99.90;;;;;;4825487;29;20046;-82
2023/06/04 03:34:20;;;;;;;0.10;0.10;;;10.10;99.90;;;;;;4834443;29;20089;-82
2023/06/04 03:36:46;;;;;;;0.17;0.17;;;10.00;99.90;;;;;;4820463;29;20061;-82
2023/06/04 03:39:11;;;;;;;0.20;0.20;;;10.20;99.90;;;;;;4839631;29;20046;-82
2023/06/04 03:41:37;;;;;;;0.20;0.20;;;10.10;99.90;;;;;;4840920;29;20114;-81
2023/06/04 03:44:02;;;;;;;0.20;0.20;;;10.00;99.90;;;;;;4826110;29;20057;-81
2023/06/04 03:46:31;;;;;;;0.20;0.20;;;10.00;99.90;;;;;;4842130;29;20056;-82
2023/06/04 03:48:57;;;;;;;0.13;0.13;;;10.00;99.90;;;;;;4825022;29;20049;-82
2023/06/04 03:51:23;;;;;;;0.15;0.15;;;10.00;99.90;;;;;;4824182;29;20046;-83
2023/06/04 03:53:48;;;;;;;0.20;0.20;;;10.00;99.90;;;;;;4821893;29;20046;-83
2023/06/04 03:56:14;;;;;;;0.20;0.20;;;10.10;99.90;;;;;;4822056;29;20079;-82
2023/06/04 03:58:40;;;;;;;0.10;0.10;;;10.10;99.90;;;;;;4818317;29;20236;-83
2023/06/04 04:01:06;;;;;;;0.10;0.10;;;10.90;99.90;;;;;;4823846;29;20045;-82
2023/06/04 04:03:34;;;;;;;0.10;0.10;;;10.10;99.90;;;;;;4839172;29;20050;-82
2023/06/04 04:06:01;;;;;;;0.20;0.20;;;10.10;99.90;;;;;;4837945;29;20045;-83
2023/06/04 04:08:31;;;;;;;0.10;0.10;;;10.10;99.90;;;;;;4838580;29;20041;-82
2023/06/04 04:10:57;;;;;;;0.10;0.10;;;10.10;99.90;;;;;;4823648;29;20065;-81
2023/06/04 04:13:22;;;;;;;0.20;0.20;;;10.20;99.90;;;;;;4825430;29;20114;-82
2023/06/04 04:15:52;;;;;;;0.20;0.20;;;10.20;99.90;;;;;;4824118;29;20705;-81
2023/06/04 04:18:19;;;;;;;0.20;0.20;;;10.20;99.90;;;;;;4823097;29;20053;-81
2023/06/04 04:20:46;;;;;;;0.20;0.20;;;10.20;99.90;;;;;;4841397;29;20090;-82
2023/06/04 04:23:12;;;;;;;0.10;0.10;;;10.20;99.90;;;;;;4822490;29;20062;-83
2023/06/04 04:25:38;;;;;;;0.10;0.10;;;10.30;99.90;;;;;;4822244;29;20054;-82
2023/06/04 04:28:06;;;;;;;0.20;0.20;;;10.30;99.90;;;;;;4840999;29;20101;-82
2023/06/04 04:30:36;;;;;;;0.10;0.10;;;10.40;99.90;;;;;;4824412;29;20077;-83
2023/06/04 04:33:04;;;;;;;0.20;0.20;;;11.10;99.90;;;;;;4829487;29;20050;-83
2023/06/04 04:35:32;;;;;;;0.20;0.20;;;10.40;99.90;;;;;;4840471;29;20049;-82
2023/06/04 04:37:58;;;;;;;0.20;0.20;;;10.50;99.90;;;;;;4823664;29;20054;-82
2023/06/04 04:40:24;;;;;;;0.10;0.10;;;10.50;99.90;;;;;;4824247;29;21062;-83
2023/06/04 04:42:50;;;;;;;0.20;0.20;;;10.50;99.90;;;;;;4824645;29;20414;-82
2023/06/04 04:45:17;;;;;;;0.20;0.20;;;10.60;99.90;;;;;;4823309;29;20042;-82
2023/06/04 04:47:43;;;;;;;0.17;0.17;;;10.60;99.90;;;;;;4821476;29;20104;-81
2023/06/04 04:50:08;;;;;;;0.10;0.10;;;10.70;99.90;;;;;;4823209;29;20494;-82
2023/06/04 04:52:34;;;;;;;0.10;0.10;;;10.70;99.90;;;;;;4839905;29;20057;-82
2023/06/04 04:55:00;;;;;;;0.17;0.17;;;10.80;99.90;;;;;;4822895;29;20045;-82
2023/06/04 04:57:25;;;;;;;0.20;0.20;;;10.70;99.90;;;;;;4840086;29;20054;-81
2023/06/04 04:59:51;;;;;;;0.17;0.17;;;10.90;99.90;;;;;;4838246;29;20129;-82
2023/06/04 05:02:17;;;;;;;0.20;0.20;;;10.90;99.90;;;;;;4838207;29;20060;-82
2023/06/04 05:04:43;;;;;;;0.10;0.10;;;11.10;99.90;;;;;;4823704;29;20045;-82
2023/06/04 05:07:08;;;;;;;0.20;0.20;;;11.10;99.90;;;;;;4820403;29;20122;-81
2023/06/04 05:09:34;;;;;;;0.10;0.10;;;11.30;99.90;;;;;;4828662;29;20038;-82
2023/06/04 05:12:01;;;;;;;0.10;0.10;;;11.20;99.90;;;;;;4824467;29;20058;-82
2023/06/04 05:14:28;;;;;;;0.10;0.10;;;11.50;99.90;;;;;;4840969;29;20102;-82
2023/06/04 05:16:56;;;;;;;0.10;0.10;;;11.40;99.90;;;;;;4822377;29;20073;-82
2023/06/04 05:19:22;;;;;;;0.10;0.10;;;11.30;99.90;;;;;;4821870;29;20106;-82
2023/06/04 05:21:51;;;;;;;0.15;0.15;;;11.40;99.90;;;;;;4839356;29;20050;-82
2023/06/04 05:24:16;;;;;;;0.20;0.20;;;11.40;99.90;;;;;;4822090;29;20058;-82
2023/06/04 05:26:42;;;;;;;0.10;0.10;;;11.50;99.90;;;;;;4829266;29;20054;-82
2023/06/04 05:29:08;;;;;;;0.10;0.10;;;11.50;99.90;;;;;;4822908;29;20050;-82
2023/06/04 05:31:34;;;;;;;0.20;0.20;;;11.50;99.90;;;;;;4839788;29;20090;-83
2023/06/04 05:34:06;;;;;;;0.10;0.10;;;11.70;99.90;;;;;;4820133;29;20068;-82
2023/06/04 05:36:32;;;;;;;0.10;0.10;;;11.80;99.90;;;;;;4839827;29;20049;-83
2023/06/04 05:38:59;;;;;;;0.20;0.20;;;11.80;99.90;;;;;;4838303;29;20054;-83
2023/06/04 05:41:25;;;;;;;0.17;0.17;;;11.80;99.90;;;;;;4812200;29;20168;-83
2023/06/04 05:43:51;;;;;;;0.10;0.10;;;12.00;99.90;;;;;;4838065;29;20110;-84
2023/06/04 05:46:18;;;;;;;0.10;0.10;;;12.00;99.90;;;;;;4825146;29;20434;-83
2023/06/04 05:48:43;;;;;;;0.20;0.20;;;12.00;99.90;;;;;;4820190;29;20054;-83
2023/06/04 05:51:09;;;;;;;0.20;0.20;;;11.30;99.90;;;;;;4823247;29;20050;-82
2023/06/04 05:53:35;;;;;;;0.10;0.10;;;12.40;99.90;;;;;;4838831;29;20057;-83
2023/06/04 05:56:01;;;;;;;0.20;0.20;;;12.20;99.90;;;;;;4824187;29;20132;-82
2023/06/04 05:58:26;;;;;;;0.10;0.10;;;12.30;99.90;;;;;;4838047;29;20054;-82
2023/06/04 06:00:52;;;;;;;0.20;0.20;;;12.80;99.90;;;;;;4822257;29;20138;-82
2023/06/04 06:03:19;;;;;;;0.10;0.10;;;12.40;99.90;;;;;;4818159;29;20805;-82
2023/06/04 06:05:44;;;;;;;0.20;0.20;;;12.50;99.90;;;;;;4823703;29;20125;-83
2023/06/04 06:08:10;;;;;;;0.20;0.20;;;12.50;99.90;;;;;;4819383;29;20140;-82
2023/06/04 06:10:36;;;;;;;0.20;0.20;;;12.60;99.90;;;;;;4818891;29;20126;-82
2023/06/04 06:13:02;;;;;;;0.10;0.10;;;12.70;99.90;;;;;;4822635;29;20503;-83
2023/06/04 06:15:28;;;;;;;0.10;0.10;;;12.70;99.90;;;;;;4838638;29;20077;-83
2023/06/04 06:17:54;;;;;;;0.10;0.10;;;12.80;99.90;;;;;;4820710;29;20149;-84
2023/06/04 06:20:21;;;;;;;0.13;0.13;;;12.80;99.90;;;;;;4827641;29;20046;-85
2023/06/04 06:22:48;;;;;;;0.20;0.20;;;12.90;99.90;;;;;;4808180;29;20516;-83
2023/06/04 06:25:15;;;;;;;0.20;0.20;;;13.00;99.90;;;;;;4839245;29;20121;-83
2023/06/04 06:27:41;;;;;;;0.10;0.10;;;13.00;99.90;;;;;;4823466;29;20538;-82
2023/06/04 06:30:08;;;;;;;0.10;0.10;;;13.10;99.90;;;;;;4837996;29;20121;-83
2023/06/04 06:32:34;;;;;;;0.10;0.10;;;13.20;99.90;;;;;;4819752;29;20046;-82
2023/06/04 06:35:00;;;;;;;0.17;0.17;;;13.30;99.90;;;;;;4822766;29;20129;-83
2023/06/04 06:37:26;;;;;;;0.20;0.20;;;13.30;99.90;;;;;;4821313;29;20145;-83
2023/06/04 06:39:52;;;;;;;0.10;0.10;;;13.40;99.90;;;;;;4821435;29;20053;-83
2023/06/04 06:42:19;;;;;;;0.20;0.20;;;13.40;99.90;;;;;;4837388;29;20058;-83
2023/06/04 06:44:45;;;;;;;0.10;0.10;;;13.50;99.90;;;;;;4836824;29;20523;-81
2023/06/04 06:47:13;;;;;;;0.10;0.10;;;13.60;99.90;;;;;;4821674;29;20110;-83
2023/06/04 06:49:40;;;;;;;0.20;0.20;;;13.60;99.90;;;;;;4820803;29;20050;-82
2023/06/04 06:52:06;;;;;;;0.10;0.10;;;13.70;99.90;;;;;;4836256;29;20049;-84
2023/06/04 06:54:31;;;;;;;0.20;0.20;;;13.70;99.90;;;;;;4820125;29;20106;-84
2023/06/04 06:56:57;;;;;;;0.20;0.20;;;13.80;99.90;;;;;;4836927;29;20058;-84
2023/06/04 06:59:23;;;;;;;0.20;0.20;;;13.80;99.90;;;;;;4819022;29;20053;-85
2023/06/04 07:01:49;;;;;;;0.20;0.20;;;13.80;99.90;;;;;;4832977;29;20514;-83
2023/06/04 07:04:15;;;;;;;0.20;0.20;;;13.90;99.90;;;;;;4816593;29;20086;-86
2023/06/04 07:06:41;;;;;;;0.20;0.20;;;13.90;99.90;;;;;;4811410;29;20061;-83
2023/06/04 07:09:07;;;;;;;0.20;0.20;;;14.00;99.90;;;;;;4811130;29;20049;-81
2023/06/04 07:11:33;;;;;;;0.20;0.20;;;14.00;99.90;;;;;;4838085;29;20105;-84
2023/06/04 07:14:01;;;;;;;0.10;0.10;;;14.10;99.90;;;;;;4835118;29;20483;-83
2023/06/04 07:16:27;;;;;;;0.15;0.15;;;14.60;99.90;;;;;;4818889;29;20106;-83
2023/06/04 07:18:53;;;;;;;0.20;0.20;;;14.20;99.90;;;;;;4815616;29;20042;-83
2023/06/04 07:21:19;;;;;;;0.20;0.20;;;14.20;99.90;;;;;;4822483;29;20041;-80
2023/06/04 07:23:49;;;;;;;0.10;0.10;;;14.30;99.90;;;;;;4834707;29;20076;-81
2023/06/04 07:26:15;;;;;;;0.20;0.20;;;14.30;99.90;;;;;;4820759;29;20050;-84
2023/06/04 07:28:41;;;;;;;0.13;0.13;;;14.40;99.90;;;;;;4832353;29;20091;-81
2023/06/04 07:31:06;;;;;;;0.20;0.20;;;14.40;99.90;;;;;;4821054;29;20058;-81
2023/06/04 07:33:32;;;;;;;0.20;0.20;;;14.40;99.90;;;;;;4837543;29;20054;-81
2023/06/04 07:35:58;;;;;;;0.20;0.20;;;14.50;99.90;;;;;;4838142;29;20154;-84
2023/06/04 07:38:24;;;;;;;0.20;0.20;;;14.50;99.90;;;;;;4837615;29;20041;-80
2023/06/04 07:40:50;;;;;;;0.20;0.20;;;14.60;99.90;;;;;;4835140;29;20481;-80
2023/06/04 07:43:16;;;;;;;0.10;0.10;;;14.60;99.90;;;;;;4823673;29;20057;-81
2023/06/04 07:45:41;;;;;;;0.10;0.10;;;14.70;99.90;;;;;;4821886;29;20511;-81
2023/06/04 07:48:10;;;;;;;0.10;0.10;;;14.70;99.90;;;;;;4835567;29;20276;-81
2023/06/04 07:50:36;;;;;;;0.20;0.20;;;14.80;99.90;;;;;;4822157;29;20049;-82
2023/06/04 07:53:02;;;;;;;0.20;0.20;;;14.90;99.90;;;;;;4822502;29;20411;-82
2023/06/04 07:55:27;;;;;;;0.10;0.10;;;14.90;99.90;;;;;;4833358;29;20050;-81
2023/06/04 07:57:53;;;;;;;0.10;0.10;;;14.90;99.90;;;;;;4820306;29;20060;-83
2023/06/04 08:00:19;;;;;;;0.10;0.10;;;15.00;99.90;;;;;;4834588;29;20061;-82
2023/06/04 08:02:45;;;;;;;0.20;0.20;;;15.00;99.90;;;;;;4814845;29;20646;-81
2023/06/04 08:05:13;;;;;;;0.20;0.20;;;15.10;99.90;;;;;;4827444;29;20045;-82
2023/06/04 08:07:40;;;;;;;0.20;0.20;;;15.10;99.90;;;;;;4825109;29;20486;-83
2023/06/04 08:10:06;;;;;;;0.20;0.20;;;15.10;99.90;;;;;;4834544;29;20418;-83
2023/06/04 08:12:32;;;;;;;0.20;0.20;;;15.10;99.90;;;;;;4837422;29;20081;-83
2023/06/04 08:14:57;;;;;;;0.20;0.20;;;15.20;99.90;;;;;;4838315;29;20458;-84
2023/06/04 08:17:23;;;;;;;0.20;0.20;;;15.20;99.90;;;;;;4821997;29;20042;-83
2023/06/04 08:19:49;;;;;;;0.10;0.10;;;15.20;99.90;;;;;;4821873;29;20054;-85
2023/06/04 08:22:16;;;;;;;0.20;0.20;;;15.30;99.90;;;;;;4845434;29;20114;-87
2023/06/04 08:24:42;;;;;;;0.10;0.10;;;15.40;99.90;;;;;;4841852;29;20050;-89
2023/06/04 08:27:08;;;;;;;0.10;0.10;;;15.40;99.90;;;;;;4827277;29;20049;-87
2023/06/04 08:29:39;;;;;;;0.15;0.15;;;15.40;99.90;;;;;;4843449;29;20095;-88
2023/06/04 08:32:07;;;;;;;0.20;0.20;;;15.50;99.90;;;;;;4839605;29;20491;-85
2023/06/04 08:34:33;;;;;;;0.17;0.17;;;15.50;99.90;;;;;;4834570;29;20114;-86
2023/06/04 08:36:58;;;;;;;0.20;0.20;;;15.60;99.90;;;;;;4843794;29;20042;-87
2023/06/04 08:39:24;;;;;;;0.20;0.20;;;15.60;99.90;;;;;;4843445;29;20042;-86
2023/06/04 08:41:54;;;;;;;0.10;0.10;;;15.70;99.90;;;;;;4840348;29;20074;-88
2023/06/04 08:44:20;;;;;;;0.20;0.20;;;15.70;99.60;;;;;;4841670;29;20078;-87
2023/06/04 08:46:50;;;;;;;0.30;0.30;;;15.70;99.50;;;;;;4844405;29;20061;-87
2023/06/04 08:49:18;;;;;;;0.20;0.20;;;15.70;99.40;;;;;;4819176;29;20451;-86
2023/06/04 08:51:44;;;;;;;0.20;0.20;;;15.70;99.30;;;;;;4819029;29;20061;-72
2023/06/04 08:54:11;;;;;;;0.20;0.20;;;15.80;99.30;;;;;;4836340;29;20079;-72
2023/06/04 08:56:37;;;;;;;0.17;0.17;;;15.90;99.10;;;;;;4839178;29;20046;-73
2023/06/04 08:59:06;;;;;;;0.20;0.20;;;15.90;99.00;;;;;;4837214;29;20046;-74
2023/06/04 09:01:33;;;;;;;0.17;0.17;;;15.90;98.80;;;;;;4833952;29;20046;-73
2023/06/04 09:04:05;;;;;;;0.10;0.10;;;16.00;98.50;;;;;;4829987;29;20050;-74
2023/06/04 09:06:32;;;;;;;0.20;0.20;;;16.00;98.20;;;;;;4830562;29;20079;-73
2023/06/04 09:09:03;;;;;;;0.20;0.20;;;16.00;98.20;;;;;;4814965;29;20053;-74
2023/06/04 09:11:35;;;;;;;0.20;0.20;;;16.00;98.30;;;;;;4829787;29;20133;-74
2023/06/04 09:14:05;;;;;;;0.20;0.20;;;16.10;98.20;;;;;;4833731;29;20042;-73
2023/06/04 09:16:37;;;;;;;0.10;0.10;;;16.10;97.90;;;;;;4811856;29;20509;-78
2023/06/04 09:19:04;;;;;;;0.20;0.20;;;16.20;97.80;;;;;;4811939;29;20102;-73
2023/06/04 09:21:29;;;;;;;0.10;0.10;;;16.20;97.80;;;;;;4817953;29;20110;-74
2023/06/04 09:23:55;;;;;;;0.20;0.20;;;16.20;97.80;;;;;;4838253;29;20658;-74
2023/06/04 09:26:21;;;;;;;0.20;0.20;;;16.30;97.60;;;;;;4839793;29;20133;-74
2023/06/04 09:28:47;;;;;;;0.20;0.20;;;16.30;97.60;;;;;;4822865;29;20069;-74
2023/06/04 09:31:16;;;;;;;0.20;0.20;;;16.30;97.70;;;;;;4839437;29;20045;-74
2023/06/04 09:33:49;;;;;;;0.20;0.20;;;16.40;97.60;;;;;;4836170;29;20056;-75
2023/06/04 09:36:16;;;;;;;0.10;0.10;;;16.40;97.40;;;;;;4839046;29;20652;-74
2023/06/04 09:38:42;;;;;;;0.20;0.20;;;16.40;97.20;;;;;;4840128;29;20046;-75
2023/06/04 09:41:12;;;;;;;0.20;0.20;;;16.40;97.00;;;;;;4819563;29;20049;-74
2023/06/04 09:43:38;;;;;;;0.20;0.20;;;16.50;97.00;;;;;;4828275;29;20049;-74
2023/06/04 09:46:14;;;;;;;0.20;0.20;;;16.50;97.00;;;;;;4840131;29;20054;-75
2023/06/04 09:48:41;;;;;;;0.17;0.17;;;16.50;97.00;;;;;;4831447;29;20050;-73
2023/06/04 09:51:08;;;;;;;0.20;0.20;;;16.60;97.00;;;;;;4808471;29;20749;-73
2023/06/04 09:53:34;;;;;;;0.20;0.20;;;16.60;96.60;;;;;;4827752;29;20073;-74
2023/06/04 09:56:01;;;;;;;0.20;0.20;;;16.60;96.60;;;;;;4829366;29;20053;-73
2023/06/04 09:58:27;;;;;;;0.20;0.20;;;16.60;96.30;;;;;;4829837;29;20557;-73
2023/06/04 10:00:55;;;;;;;0.20;0.20;;;16.60;96.10;;;;;;4823707;29;20058;-73
2023/06/04 10:03:25;;;;;;;0.20;0.20;;;16.70;96.20;;;;;;4836855;29;20571;-73
2023/06/04 10:05:53;;;;;;;0.17;0.17;;;16.70;96.20;;;;;;4823454;29;20700;-73
2023/06/04 10:08:22;;;;;;;0.20;0.20;;;16.70;96.30;;;;;;4825620;29;20440;-74
2023/06/04 10:10:52;;;;;;;0.10;0.10;;;16.80;96.00;;;;;;4834200;29;20050;-73
2023/06/04 10:13:19;;;;;;;0.20;0.20;;;16.80;96.10;;;;;;4821665;29;20057;-73
2023/06/04 10:15:48;;;;;;;0.10;0.10;;;16.80;96.20;;;;;;4828528;29;20046;-73
2023/06/04 10:18:17;;;;;;;0.10;0.10;;;16.90;96.30;;;;;;4804282;29;20056;-74
2023/06/04 10:20:43;;;;;;;0.10;0.10;;;16.90;96.10;;;;;;4822826;29;20042;-74
2023/06/04 10:23:09;;;;;;;0.20;0.20;;;17.00;96.00;;;;;;4838333;29;20065;-73
2023/06/04 10:25:35;;;;;;;0.20;0.20;;;17.00;96.00;;;;;;4838346;29;20146;-74
2023/06/04 10:28:02;;;;;;;0.20;0.20;;;17.10;96.00;;;;;;4837356;29;20058;-74
2023/06/04 10:30:29;;;;;;;0.10;0.10;;;17.20;96.00;;;;;;4821029;29;20064;-73
2023/06/04 10:32:57;;;;;;;0.15;0.15;;;17.10;95.70;;;;;;4843157;29;20086;-73
2023/06/04 10:35:35;;;;;;;0.20;0.20;;;17.20;95.50;;;;;;4838636;29;20050;-73
2023/06/04 10:38:13;;;;;;;0.20;0.20;;;17.20;95.50;;;;;;4819587;29;20080;-74
2023/06/04 10:40:39;;;;;;;0.60;0.30;;;17.20;95.50;;;;;;4823026;29;20064;-73
2023/06/04 10:43:10;;;;;;;0.15;0.15;;;17.30;95.60;;;;;;4836896;29;20410;-73
2023/06/04 10:45:36;;;;;;;0.20;0.20;;;17.30;95.60;;;;;;4820975;29;20057;-73
2023/06/04 10:48:03;;;;;;;0.20;0.20;;;17.40;95.40;;;;;;4837857;29;20053;-73
2023/06/04 10:50:29;;;;;;;0.20;0.20;;;17.40;95.30;;;;;;4838635;29;20094;-74
2023/06/04 10:52:57;;;;;;;0.20;0.20;;;17.50;95.30;;;;;;4837138;29;20140;-73
2023/06/04 10:55:23;;;;;;;0.20;0.20;;;17.50;95.10;;;;;;4822836;29;20117;-74
2023/06/04 10:57:59;;;;;;;0.20;0.20;;;17.60;94.90;;;;;;4836720;29;20046;-73
2023/06/04 11:00:38;;;;;;;0.20;0.20;;;17.60;94.60;;;;;;4839246;29;20157;-73
2023/06/04 11:03:09;;;;;;;0.20;0.20;;;17.60;94.70;;;;;;4836372;29;21321;-73
2023/06/04 11:05:38;;;;;;;0.20;0.20;;;17.60;94.50;;;;;;4827976;29;20039;-73
2023/06/04 11:08:05;;;;;;;0.10;0.10;;;17.60;94.70;;;;;;4808693;29;20066;-74
2023/06/04 11:10:39;;;;;;;0.20;0.20;;;17.70;94.80;;;;;;4824337;29;20258;-73
2023/06/04 11:13:05;;;;;;;0.10;0.10;;;17.70;94.90;;;;;;4815535;29;20498;-73
2023/06/04 11:15:46;;;;;;;0.20;0.20;;;17.70;94.80;;;;;;4822382;29;20409;-73
2023/06/04 11:18:16;;;;;;;0.10;0.10;;;17.80;94.70;;;;;;4835362;29;20060;-74
2023/06/04 11:20:43;;;;;;;0.20;0.20;;;17.90;94.80;;;;;;4820112;29;20054;-73
2023/06/04 11:23:15;;;;;;;0.20;0.20;;;18.00;94.70;;;;;;4837144;29;20502;-73
2023/06/04 11:25:43;;;;;;;0.20;0.20;;;18.00;94.60;;;;;;4822295;29;20080;-73
2023/06/04 11:28:21;;;;;;;0.10;0.10;;;18.10;94.60;;;;;;4836979;29;20062;-73
2023/06/04 11:30:57;;;;;;;0.20;0.20;;;18.20;94.30;;;;;;4822067;29;20486;-73
2023/06/04 11:33:23;;;;;;;0.17;0.17;;;18.20;94.00;;;;;;4836009;29;20147;-74
2023/06/04 11:35:49;;;;;;;0.20;0.20;;;18.30;93.90;;;;;;4821395;29;20050;-73
2023/06/04 11:38:14;;;;;;;0.17;0.17;;;18.30;94.00;;;;;;4837416;29;20093;-73
2023/06/04 11:40:42;;;;;;;0.10;0.10;;;18.40;93.70;;;;;;4836164;29;20048;-73
2023/06/04 11:43:10;;;;;;;0.20;0.20;;;18.40;93.60;;;;;;4830345;29;20138;-74
2023/06/04 11:45:37;;;;;;;0.20;0.20;;;18.50;93.60;;;;;;4834817;29;20076;-74
2023/06/04 11:48:05;;;;;;;0.13;0.13;;;18.60;93.70;;;;;;4822483;29;20137;-73
2023/06/04 11:50:31;;;;;;;0.20;0.20;;;18.60;93.50;;;;;;4841311;29;20046;-74
2023/06/04 11:52:57;;;;;;;0.20;0.20;;;18.70;93.40;;;;;;4840853;29;20085;-73
2023/06/04 11:55:23;;;;;;;0.17;0.17;;;18.80;93.40;;;;;;4840529;29;20084;-74
2023/06/04 11:57:50;;;;;;;0.20;0.20;;;18.80;93.50;;;;;;4841840;29;20050;-74
2023/06/04 12:00:17;;;;;;;0.17;0.17;;;18.90;93.70;;;;;;4841152;29;20054;-73
2023/06/04 12:02:53;;;;;;;0.20;0.20;;;19.00;93.40;;;;;;4840020;29;20078;-74
2023/06/04 12:05:20;;;;;;;0.20;0.20;;;19.10;93.50;;;;;;4840599;29;20118;-74
2023/06/04 12:07:50;;;;;;;0.13;0.13;;;19.10;93.30;;;;;;4822632;29;20057;-74
2023/06/04 12:10:20;;;;;;;0.20;0.20;;;19.20;93.30;;;;;;4822602;29;20145;-74
2023/06/04 12:12:54;;;;;;;0.20;0.20;;;19.30;93.50;;;;;;4834266;29;20038;-74
2023/06/04 12:15:20;;;;;;;0.10;0.10;;;19.30;93.20;;;;;;4818439;29;20172;-86
2023/06/04 12:17:53;;;;;;;0.20;0.20;;;19.40;92.80;;;;;;4834548;29;20046;-84
2023/06/04 12:20:33;;;;;;;0.20;0.20;;;19.40;92.70;;;;;;4826344;29;20054;-82
2023/06/04 12:22:59;;;;;;;0.20;0.20;;;19.50;92.80;;;;;;4826251;29;20660;-86
2023/06/04 12:25:26;;;;;;;0.20;0.20;;;19.50;92.90;;;;;;4838196;29;20144;-87
2023/06/04 12:27:52;;;;;;;0.20;0.20;;;19.60;92.50;;;;;;4854236;29;20045;-89
2023/06/04 12:30:18;;;;;;;0.20;0.20;;;19.60;92.30;;;;;;4852605;29;20376;-88
2023/06/04 12:32:45;;;;;;;0.10;0.10;;;19.70;92.40;;;;;;4820330;29;20064;-87
2023/06/04 12:35:11;;;;;;;0.20;0.20;;;19.80;92.30;;;;;;4840525;29;20050;-85
2023/06/04 12:37:36;;;;;;;0.20;0.20;;;19.80;92.10;;;;;;4847975;29;20049;-85
2023/06/04 12:40:04;;;;;;;0.20;0.20;;;19.80;92.10;;;;;;4827194;29;20046;-84
2023/06/04 12:42:30;;;;;;;0.10;0.10;;;19.90;92.00;;;;;;4827124;29;20490;-86
2023/06/04 12:44:56;;;;;;;0.20;0.20;;;20.00;92.10;;;;;;4823911;29;20044;-85
2023/06/04 12:47:21;;;;;;;0.20;0.20;;;20.00;91.80;;;;;;4826819;29;20050;-85